sensor_id;sensor_type;location;lat;lon;timestamp;P1;durP1;ratioP1;P2;durP2;ratioP2
36379;SDS011;22411;53.016;18.632;2023-03-19T00:00:07;33.08;;;20.58;;
36379;SDS011;22411;53.016;18.632;2023-03-19T00:02:54;32.58;;;19.77;;
36379;SDS011;22411;53.016;18.632;2023-03-19T00:05:20;33.22;;;19.40;;
36379;SDS011;22411;53.016;18.632;2023-03-19T00:07:46;34.13;;;20.30;;
36379;SDS011;22411;53.016;18.632;2023-03-19T00:10:12;35.92;;;21.27;;
36379;SDS011;22411;53.016;18.632;2023-03-19T00:12:38;36.50;;;22.00;;
36379;SDS011;22411;53.016;18.632;2023-03-19T00:15:04;33.77;;;20.70;;
36379;SDS011;22411;53.016;18.632;2023-03-19T00:17:33;39.08;;;21.98;;
36379;SDS011;22411;53.016;18.632;2023-03-19T00:19:59;34.13;;;21.13;;
36379;SDS011;22411;53.016;18.632;2023-03-19T00:22:25;35.45;;;21.35;;
36379;SDS011;22411;53.016;18.632;2023-03-19T00:24:51;34.80;;;21.87;;
36379;SDS011;22411;53.016;18.632;2023-03-19T00:27:18;39.00;;;21.70;;
36379;SDS011;22411;53.016;18.632;2023-03-19T00:29:44;34.70;;;21.07;;
36379;SDS011;22411;53.016;18.632;2023-03-19T00:32:10;39.67;;;21.80;;
36379;SDS011;22411;53.016;18.632;2023-03-19T00:34:36;39.53;;;22.60;;
36379;SDS011;22411;53.016;18.632;2023-03-19T00:37:03;34.93;;;21.37;;
36379;SDS011;22411;53.016;18.632;2023-03-19T00:39:29;36.80;;;19.93;;
36379;SDS011;22411;53.016;18.632;2023-03-19T00:41:56;36.20;;;20.40;;
36379;SDS011;22411;53.016;18.632;2023-03-19T00:44:22;34.90;;;22.60;;
36379;SDS011;22411;53.016;18.632;2023-03-19T00:46:49;40.37;;;22.23;;
36379;SDS011;22411;53.016;18.632;2023-03-19T00:49:15;39.07;;;22.97;;
36379;SDS011;22411;53.016;18.632;2023-03-19T00:51:41;37.67;;;22.37;;
36379;SDS011;22411;53.016;18.632;2023-03-19T00:54:09;40.73;;;23.13;;
36379;SDS011;22411;53.016;18.632;2023-03-19T00:56:36;39.70;;;22.80;;
36379;SDS011;22411;53.016;18.632;2023-03-19T00:59:02;39.43;;;23.33;;
36379;SDS011;22411;53.016;18.632;2023-03-19T01:01:28;39.40;;;23.13;;
36379;SDS011;22411;53.016;18.632;2023-03-19T01:03:54;41.53;;;23.50;;
36379;SDS011;22411;53.016;18.632;2023-03-19T01:06:21;39.73;;;22.37;;
36379;SDS011;22411;53.016;18.632;2023-03-19T01:08:47;39.13;;;24.00;;
36379;SDS011;22411;53.016;18.632;2023-03-19T01:11:13;39.37;;;23.13;;
36379;SDS011;22411;53.016;18.632;2023-03-19T01:13:41;38.83;;;22.37;;
36379;SDS011;22411;53.016;18.632;2023-03-19T01:16:08;39.97;;;21.30;;
36379;SDS011;22411;53.016;18.632;2023-03-19T01:18:34;34.10;;;21.10;;
36379;SDS011;22411;53.016;18.632;2023-03-19T01:21:01;40.83;;;21.70;;
36379;SDS011;22411;53.016;18.632;2023-03-19T01:23:28;38.87;;;21.93;;
36379;SDS011;22411;53.016;18.632;2023-03-19T01:25:55;39.83;;;22.93;;
36379;SDS011;22411;53.016;18.632;2023-03-19T01:28:21;40.80;;;22.20;;
36379;SDS011;22411;53.016;18.632;2023-03-19T01:30:48;37.43;;;22.73;;
36379;SDS011;22411;53.016;18.632;2023-03-19T01:33:14;37.67;;;21.93;;
36379;SDS011;22411;53.016;18.632;2023-03-19T01:35:40;36.40;;;20.67;;
36379;SDS011;22411;53.016;18.632;2023-03-19T01:38:07;37.70;;;22.40;;
36379;SDS011;22411;53.016;18.632;2023-03-19T01:40:34;35.27;;;22.10;;
36379;SDS011;22411;53.016;18.632;2023-03-19T01:45:44;38.50;;;22.73;;
36379;SDS011;22411;53.016;18.632;2023-03-19T01:48:36;38.27;;;22.00;;
36379;SDS011;22411;53.016;18.632;2023-03-19T01:51:00;39.47;;;22.90;;
36379;SDS011;22411;53.016;18.632;2023-03-19T01:53:27;43.47;;;24.43;;
36379;SDS011;22411;53.016;18.632;2023-03-19T01:55:58;36.20;;;22.80;;
36379;SDS011;22411;53.016;18.632;2023-03-19T01:58:28;42.13;;;24.47;;
36379;SDS011;22411;53.016;18.632;2023-03-19T02:00:55;40.97;;;23.40;;
36379;SDS011;22411;53.016;18.632;2023-03-19T02:03:22;46.67;;;24.57;;
36379;SDS011;22411;53.016;18.632;2023-03-19T02:05:49;43.07;;;24.10;;
36379;SDS011;22411;53.016;18.632;2023-03-19T02:08:16;37.87;;;24.07;;
36379;SDS011;22411;53.016;18.632;2023-03-19T02:10:46;44.67;;;25.47;;
36379;SDS011;22411;53.016;18.632;2023-03-19T02:13:12;40.10;;;23.67;;
36379;SDS011;22411;53.016;18.632;2023-03-19T02:15:39;45.90;;;24.83;;
36379;SDS011;22411;53.016;18.632;2023-03-19T02:18:05;42.17;;;24.90;;
36379;SDS011;22411;53.016;18.632;2023-03-19T02:23:03;44.40;;;24.53;;
36379;SDS011;22411;53.016;18.632;2023-03-19T02:25:40;44.20;;;25.73;;
36379;SDS011;22411;53.016;18.632;2023-03-19T02:28:09;42.40;;;26.17;;
36379;SDS011;22411;53.016;18.632;2023-03-19T02:30:36;37.87;;;22.80;;
36379;SDS011;22411;53.016;18.632;2023-03-19T02:33:02;44.57;;;24.90;;
36379;SDS011;22411;53.016;18.632;2023-03-19T02:35:29;40.13;;;23.77;;
36379;SDS011;22411;53.016;18.632;2023-03-19T02:37:59;45.03;;;23.97;;
36379;SDS011;22411;53.016;18.632;2023-03-19T02:40:33;37.30;;;22.80;;
36379;SDS011;22411;53.016;18.632;2023-03-19T02:43:12;39.57;;;22.83;;
36379;SDS011;22411;53.016;18.632;2023-03-19T02:45:38;40.47;;;24.10;;
36379;SDS011;22411;53.016;18.632;2023-03-19T02:48:06;44.73;;;25.77;;
36379;SDS011;22411;53.016;18.632;2023-03-19T02:50:32;42.10;;;24.93;;
36379;SDS011;22411;53.016;18.632;2023-03-19T02:52:58;43.70;;;25.00;;
36379;SDS011;22411;53.016;18.632;2023-03-19T02:55:24;42.73;;;24.30;;
36379;SDS011;22411;53.016;18.632;2023-03-19T02:57:50;41.57;;;25.13;;
36379;SDS011;22411;53.016;18.632;2023-03-19T03:00:16;39.87;;;24.70;;
36379;SDS011;22411;53.016;18.632;2023-03-19T03:02:43;45.90;;;26.47;;
36379;SDS011;22411;53.016;18.632;2023-03-19T03:05:10;42.13;;;24.77;;
36379;SDS011;22411;53.016;18.632;2023-03-19T03:07:36;44.63;;;25.47;;
36379;SDS011;22411;53.016;18.632;2023-03-19T03:10:03;45.87;;;24.43;;
36379;SDS011;22411;53.016;18.632;2023-03-19T03:12:29;40.17;;;24.73;;
36379;SDS011;22411;53.016;18.632;2023-03-19T03:14:56;44.80;;;26.30;;
36379;SDS011;22411;53.016;18.632;2023-03-19T03:17:22;43.27;;;25.33;;
36379;SDS011;22411;53.016;18.632;2023-03-19T03:19:49;40.67;;;24.60;;
36379;SDS011;22411;53.016;18.632;2023-03-19T03:22:15;47.53;;;25.67;;
36379;SDS011;22411;53.016;18.632;2023-03-19T03:24:41;46.40;;;25.30;;
36379;SDS011;22411;53.016;18.632;2023-03-19T03:27:07;46.17;;;25.63;;
36379;SDS011;22411;53.016;18.632;2023-03-19T03:29:34;45.10;;;26.70;;
36379;SDS011;22411;53.016;18.632;2023-03-19T03:31:59;47.43;;;26.37;;
36379;SDS011;22411;53.016;18.632;2023-03-19T03:34:26;44.40;;;27.03;;
36379;SDS011;22411;53.016;18.632;2023-03-19T03:36:52;47.07;;;26.73;;
36379;SDS011;22411;53.016;18.632;2023-03-19T03:39:18;45.27;;;26.80;;
36379;SDS011;22411;53.016;18.632;2023-03-19T03:41:44;42.60;;;25.07;;
36379;SDS011;22411;53.016;18.632;2023-03-19T03:44:10;48.93;;;26.73;;
36379;SDS011;22411;53.016;18.632;2023-03-19T03:46:36;49.90;;;27.30;;
36379;SDS011;22411;53.016;18.632;2023-03-19T03:49:02;47.30;;;27.27;;
36379;SDS011;22411;53.016;18.632;2023-03-19T03:51:28;43.67;;;25.33;;
36379;SDS011;22411;53.016;18.632;2023-03-19T03:53:54;49.67;;;27.13;;
36379;SDS011;22411;53.016;18.632;2023-03-19T03:56:23;45.77;;;28.50;;
36379;SDS011;22411;53.016;18.632;2023-03-19T03:58:49;45.83;;;25.30;;
36379;SDS011;22411;53.016;18.632;2023-03-19T04:01:15;46.07;;;26.07;;
36379;SDS011;22411;53.016;18.632;2023-03-19T04:03:43;43.33;;;26.50;;
36379;SDS011;22411;53.016;18.632;2023-03-19T04:06:12;46.53;;;26.13;;
36379;SDS011;22411;53.016;18.632;2023-03-19T04:08:42;43.10;;;25.07;;
36379;SDS011;22411;53.016;18.632;2023-03-19T04:11:07;45.17;;;26.40;;
36379;SDS011;22411;53.016;18.632;2023-03-19T04:13:34;41.80;;;24.20;;
36379;SDS011;22411;53.016;18.632;2023-03-19T04:16:04;44.77;;;24.87;;
36379;SDS011;22411;53.016;18.632;2023-03-19T04:20:58;44.50;;;24.10;;
36379;SDS011;22411;53.016;18.632;2023-03-19T04:23:24;44.47;;;26.33;;
36379;SDS011;22411;53.016;18.632;2023-03-19T04:25:50;42.27;;;24.17;;
36379;SDS011;22411;53.016;18.632;2023-03-19T04:28:16;43.63;;;26.57;;
36379;SDS011;22411;53.016;18.632;2023-03-19T04:30:42;46.27;;;26.73;;
36379;SDS011;22411;53.016;18.632;2023-03-19T04:33:09;45.30;;;25.60;;
36379;SDS011;22411;53.016;18.632;2023-03-19T04:35:36;50.23;;;27.90;;
36379;SDS011;22411;53.016;18.632;2023-03-19T04:38:02;47.87;;;27.13;;
36379;SDS011;22411;53.016;18.632;2023-03-19T04:40:28;47.53;;;28.47;;
36379;SDS011;22411;53.016;18.632;2023-03-19T04:42:54;49.40;;;27.57;;
36379;SDS011;22411;53.016;18.632;2023-03-19T04:45:20;47.17;;;26.40;;
36379;SDS011;22411;53.016;18.632;2023-03-19T04:47:46;46.40;;;27.23;;
36379;SDS011;22411;53.016;18.632;2023-03-19T04:50:12;45.87;;;26.27;;
36379;SDS011;22411;53.016;18.632;2023-03-19T04:52:39;44.83;;;26.77;;
36379;SDS011;22411;53.016;18.632;2023-03-19T04:55:05;42.10;;;25.43;;
36379;SDS011;22411;53.016;18.632;2023-03-19T04:57:32;47.07;;;27.43;;
36379;SDS011;22411;53.016;18.632;2023-03-19T04:59:58;47.53;;;27.00;;
36379;SDS011;22411;53.016;18.632;2023-03-19T05:02:25;47.07;;;28.13;;
36379;SDS011;22411;53.016;18.632;2023-03-19T05:04:51;49.53;;;28.23;;
36379;SDS011;22411;53.016;18.632;2023-03-19T05:07:18;44.10;;;26.47;;
36379;SDS011;22411;53.016;18.632;2023-03-19T05:09:44;42.83;;;27.07;;
36379;SDS011;22411;53.016;18.632;2023-03-19T05:12:11;44.37;;;26.37;;
36379;SDS011;22411;53.016;18.632;2023-03-19T05:14:37;45.70;;;27.60;;
36379;SDS011;22411;53.016;18.632;2023-03-19T05:17:04;42.10;;;26.27;;
36379;SDS011;22411;53.016;18.632;2023-03-19T05:19:30;47.30;;;27.30;;
36379;SDS011;22411;53.016;18.632;2023-03-19T05:21:56;48.27;;;29.00;;
36379;SDS011;22411;53.016;18.632;2023-03-19T05:24:23;50.73;;;27.87;;
36379;SDS011;22411;53.016;18.632;2023-03-19T05:26:49;46.17;;;27.63;;
36379;SDS011;22411;53.016;18.632;2023-03-19T05:29:15;48.00;;;27.13;;
36379;SDS011;22411;53.016;18.632;2023-03-19T05:31:41;47.87;;;26.47;;
36379;SDS011;22411;53.016;18.632;2023-03-19T05:34:07;45.90;;;27.20;;
36379;SDS011;22411;53.016;18.632;2023-03-19T05:36:33;45.50;;;27.50;;
36379;SDS011;22411;53.016;18.632;2023-03-19T05:38:59;45.73;;;25.77;;
36379;SDS011;22411;53.016;18.632;2023-03-19T05:41:25;47.90;;;29.37;;
36379;SDS011;22411;53.016;18.632;2023-03-19T05:43:51;45.27;;;27.23;;
36379;SDS011;22411;53.016;18.632;2023-03-19T05:46:17;49.93;;;28.63;;
36379;SDS011;22411;53.016;18.632;2023-03-19T05:48:43;48.43;;;26.77;;
36379;SDS011;22411;53.016;18.632;2023-03-19T05:51:09;45.80;;;27.43;;
36379;SDS011;22411;53.016;18.632;2023-03-19T05:53:35;45.30;;;27.80;;
36379;SDS011;22411;53.016;18.632;2023-03-19T05:56:02;47.07;;;28.30;;
36379;SDS011;22411;53.016;18.632;2023-03-19T05:58:28;43.00;;;25.50;;
36379;SDS011;22411;53.016;18.632;2023-03-19T06:00:54;41.53;;;26.10;;
36379;SDS011;22411;53.016;18.632;2023-03-19T06:03:23;42.93;;;26.33;;
36379;SDS011;22411;53.016;18.632;2023-03-19T06:05:51;42.80;;;26.00;;
36379;SDS011;22411;53.016;18.632;2023-03-19T06:08:17;45.30;;;27.10;;
36379;SDS011;22411;53.016;18.632;2023-03-19T06:10:44;48.07;;;26.73;;
36379;SDS011;22411;53.016;18.632;2023-03-19T06:13:10;44.27;;;26.63;;
36379;SDS011;22411;53.016;18.632;2023-03-19T06:15:36;48.37;;;27.23;;
36379;SDS011;22411;53.016;18.632;2023-03-19T06:18:02;42.77;;;26.77;;
36379;SDS011;22411;53.016;18.632;2023-03-19T06:20:28;47.10;;;26.90;;
36379;SDS011;22411;53.016;18.632;2023-03-19T06:22:54;44.03;;;27.03;;
36379;SDS011;22411;53.016;18.632;2023-03-19T06:25:21;46.10;;;28.43;;
36379;SDS011;22411;53.016;18.632;2023-03-19T06:27:46;46.40;;;27.60;;
36379;SDS011;22411;53.016;18.632;2023-03-19T06:30:13;50.73;;;28.50;;
36379;SDS011;22411;53.016;18.632;2023-03-19T06:32:39;45.63;;;26.97;;
36379;SDS011;22411;53.016;18.632;2023-03-19T06:35:05;43.85;;;28.60;;
36379;SDS011;22411;53.016;18.632;2023-03-19T06:37:33;48.20;;;29.20;;
36379;SDS011;22411;53.016;18.632;2023-03-19T06:39:59;46.67;;;27.93;;
36379;SDS011;22411;53.016;18.632;2023-03-19T06:42:25;45.70;;;28.00;;
36379;SDS011;22411;53.016;18.632;2023-03-19T06:44:52;40.30;;;24.90;;
36379;SDS011;22411;53.016;18.632;2023-03-19T06:47:18;46.72;;;27.40;;
36379;SDS011;22411;53.016;18.632;2023-03-19T06:49:44;51.22;;;27.33;;
36379;SDS011;22411;53.016;18.632;2023-03-19T06:52:10;47.83;;;28.60;;
36379;SDS011;22411;53.016;18.632;2023-03-19T06:54:37;45.90;;;27.38;;
36379;SDS011;22411;53.016;18.632;2023-03-19T06:57:04;46.50;;;29.23;;
36379;SDS011;22411;53.016;18.632;2023-03-19T06:59:31;47.33;;;27.50;;
36379;SDS011;22411;53.016;18.632;2023-03-19T07:01:57;43.38;;;26.92;;
36379;SDS011;22411;53.016;18.632;2023-03-19T07:04:23;39.35;;;25.23;;
36379;SDS011;22411;53.016;18.632;2023-03-19T07:06:49;38.60;;;24.83;;
36379;SDS011;22411;53.016;18.632;2023-03-19T07:09:16;41.45;;;25.25;;
36379;SDS011;22411;53.016;18.632;2023-03-19T07:11:41;48.75;;;28.88;;
36379;SDS011;22411;53.016;18.632;2023-03-19T07:14:08;46.13;;;27.08;;
36379;SDS011;22411;53.016;18.632;2023-03-19T07:16:34;44.53;;;27.15;;
36379;SDS011;22411;53.016;18.632;2023-03-19T07:19:00;41.50;;;27.23;;
36379;SDS011;22411;53.016;18.632;2023-03-19T07:21:26;45.67;;;28.10;;
36379;SDS011;22411;53.016;18.632;2023-03-19T07:23:54;47.90;;;30.00;;
36379;SDS011;22411;53.016;18.632;2023-03-19T07:26:20;43.78;;;28.10;;
36379;SDS011;22411;53.016;18.632;2023-03-19T07:28:47;46.88;;;28.48;;
36379;SDS011;22411;53.016;18.632;2023-03-19T07:31:13;45.78;;;28.58;;
36379;SDS011;22411;53.016;18.632;2023-03-19T07:33:39;44.50;;;26.52;;
36379;SDS011;22411;53.016;18.632;2023-03-19T07:36:05;50.13;;;29.52;;
36379;SDS011;22411;53.016;18.632;2023-03-19T07:38:32;42.30;;;27.92;;
36379;SDS011;22411;53.016;18.632;2023-03-19T07:40:57;44.33;;;26.17;;
36379;SDS011;22411;53.016;18.632;2023-03-19T07:43:24;43.25;;;26.58;;
36379;SDS011;22411;53.016;18.632;2023-03-19T07:45:50;45.42;;;26.77;;
36379;SDS011;22411;53.016;18.632;2023-03-19T07:48:16;37.50;;;25.27;;
36379;SDS011;22411;53.016;18.632;2023-03-19T07:50:43;42.50;;;25.45;;
36379;SDS011;22411;53.016;18.632;2023-03-19T07:53:09;41.55;;;25.75;;
36379;SDS011;22411;53.016;18.632;2023-03-19T07:55:35;40.90;;;25.48;;
36379;SDS011;22411;53.016;18.632;2023-03-19T07:58:03;45.97;;;26.30;;
36379;SDS011;22411;53.016;18.632;2023-03-19T08:00:30;42.97;;;25.90;;
36379;SDS011;22411;53.016;18.632;2023-03-19T08:02:59;37.40;;;24.45;;
36379;SDS011;22411;53.016;18.632;2023-03-19T08:05:25;42.25;;;27.60;;
36379;SDS011;22411;53.016;18.632;2023-03-19T08:07:53;40.60;;;25.25;;
36379;SDS011;22411;53.016;18.632;2023-03-19T08:10:19;43.20;;;26.30;;
36379;SDS011;22411;53.016;18.632;2023-03-19T08:12:46;40.30;;;26.02;;
36379;SDS011;22411;53.016;18.632;2023-03-19T08:15:13;43.00;;;26.77;;
36379;SDS011;22411;53.016;18.632;2023-03-19T08:17:40;39.42;;;25.25;;
36379;SDS011;22411;53.016;18.632;2023-03-19T08:20:08;38.72;;;25.00;;
36379;SDS011;22411;53.016;18.632;2023-03-19T08:22:37;43.63;;;26.20;;
36379;SDS011;22411;53.016;18.632;2023-03-19T08:25:04;39.95;;;26.30;;
36379;SDS011;22411;53.016;18.632;2023-03-19T08:27:32;42.53;;;25.95;;
36379;SDS011;22411;53.016;18.632;2023-03-19T08:30:00;38.67;;;25.65;;
36379;SDS011;22411;53.016;18.632;2023-03-19T08:32:31;42.22;;;26.55;;
36379;SDS011;22411;53.016;18.632;2023-03-19T08:34:57;41.70;;;26.60;;
36379;SDS011;22411;53.016;18.632;2023-03-19T08:37:24;41.58;;;27.13;;
36379;SDS011;22411;53.016;18.632;2023-03-19T08:39:50;42.47;;;26.77;;
36379;SDS011;22411;53.016;18.632;2023-03-19T08:42:19;41.05;;;26.42;;
36379;SDS011;22411;53.016;18.632;2023-03-19T08:44:47;38.58;;;26.05;;
36379;SDS011;22411;53.016;18.632;2023-03-19T08:47:23;41.85;;;26.95;;
36379;SDS011;22411;53.016;18.632;2023-03-19T08:49:49;40.97;;;26.65;;
36379;SDS011;22411;53.016;18.632;2023-03-19T08:52:17;44.08;;;25.70;;
36379;SDS011;22411;53.016;18.632;2023-03-19T08:54:44;41.25;;;26.90;;
36379;SDS011;22411;53.016;18.632;2023-03-19T08:57:11;41.97;;;26.58;;
36379;SDS011;22411;53.016;18.632;2023-03-19T08:59:37;41.28;;;25.65;;
36379;SDS011;22411;53.016;18.632;2023-03-19T09:02:04;35.70;;;24.48;;
36379;SDS011;22411;53.016;18.632;2023-03-19T09:04:30;38.78;;;24.40;;
36379;SDS011;22411;53.016;18.632;2023-03-19T09:07:01;44.05;;;28.33;;
36379;SDS011;22411;53.016;18.632;2023-03-19T09:09:27;41.25;;;27.15;;
36379;SDS011;22411;53.016;18.632;2023-03-19T09:11:53;47.42;;;28.83;;
36379;SDS011;22411;53.016;18.632;2023-03-19T09:14:19;36.35;;;25.50;;
36379;SDS011;22411;53.016;18.632;2023-03-19T09:16:45;32.67;;;23.63;;
36379;SDS011;22411;53.016;18.632;2023-03-19T09:19:11;93.53;;;53.88;;
36379;SDS011;22411;53.016;18.632;2023-03-19T09:21:37;41.03;;;26.02;;
36379;SDS011;22411;53.016;18.632;2023-03-19T09:24:04;40.38;;;27.40;;
36379;SDS011;22411;53.016;18.632;2023-03-19T09:26:31;49.22;;;33.50;;
36379;SDS011;22411;53.016;18.632;2023-03-19T09:28:57;98.18;;;59.65;;
36379;SDS011;22411;53.016;18.632;2023-03-19T09:31:24;107.25;;;61.28;;
36379;SDS011;22411;53.016;18.632;2023-03-19T09:33:50;76.28;;;51.88;;
36379;SDS011;22411;53.016;18.632;2023-03-19T09:36:17;56.03;;;36.50;;
36379;SDS011;22411;53.016;18.632;2023-03-19T09:38:43;60.35;;;42.47;;
36379;SDS011;22411;53.016;18.632;2023-03-19T09:46:47;77.47;;;69.07;;
36379;SDS011;22411;53.016;18.632;2023-03-19T09:49:23;108.28;;;84.72;;
36379;SDS011;22411;53.016;18.632;2023-03-19T09:51:57;52.50;;;45.47;;
36379;SDS011;22411;53.016;18.632;2023-03-19T09:54:34;40.78;;;32.67;;
36379;SDS011;22411;53.016;18.632;2023-03-19T09:57:06;70.35;;;59.08;;
36379;SDS011;22411;53.016;18.632;2023-03-19T09:59:34;43.85;;;34.75;;
36379;SDS011;22411;53.016;18.632;2023-03-19T10:02:10;129.90;;;90.72;;
36379;SDS011;22411;53.016;18.632;2023-03-19T10:05:08;166.18;;;135.60;;
36379;SDS011;22411;53.016;18.632;2023-03-19T10:07:48;61.40;;;53.25;;
36379;SDS011;22411;53.016;18.632;2023-03-19T10:13:09;32.72;;;25.95;;
36379;SDS011;22411;53.016;18.632;2023-03-19T10:15:36;40.35;;;29.55;;
36379;SDS011;22411;53.016;18.632;2023-03-19T10:18:08;37.42;;;28.15;;
36379;SDS011;22411;53.016;18.632;2023-03-19T10:20:42;34.20;;;26.40;;
36379;SDS011;22411;53.016;18.632;2023-03-19T10:26:13;55.25;;;33.50;;
36379;SDS011;22411;53.016;18.632;2023-03-19T10:28:42;47.53;;;29.70;;
36379;SDS011;22411;53.016;18.632;2023-03-19T10:31:26;30.83;;;23.17;;
36379;SDS011;22411;53.016;18.632;2023-03-19T10:36:45;35.72;;;25.77;;
36379;SDS011;22411;53.016;18.632;2023-03-19T10:39:12;29.27;;;21.23;;
36379;SDS011;22411;53.016;18.632;2023-03-19T10:41:49;33.20;;;23.27;;
36379;SDS011;22411;53.016;18.632;2023-03-19T10:44:36;31.40;;;22.05;;
36379;SDS011;22411;53.016;18.632;2023-03-19T10:47:11;30.65;;;20.92;;
36379;SDS011;22411;53.016;18.632;2023-03-19T10:49:39;29.65;;;21.52;;
36379;SDS011;22411;53.016;18.632;2023-03-19T10:52:15;26.60;;;19.23;;
36379;SDS011;22411;53.016;18.632;2023-03-19T10:54:43;26.45;;;19.58;;
36379;SDS011;22411;53.016;18.632;2023-03-19T10:57:20;22.75;;;15.80;;
36379;SDS011;22411;53.016;18.632;2023-03-19T10:59:49;21.80;;;16.60;;
36379;SDS011;22411;53.016;18.632;2023-03-19T11:02:21;24.45;;;17.23;;
36379;SDS011;22411;53.016;18.632;2023-03-19T11:05:18;30.70;;;20.20;;
36379;SDS011;22411;53.016;18.632;2023-03-19T11:07:49;24.08;;;16.90;;
36379;SDS011;22411;53.016;18.632;2023-03-19T11:10:20;31.85;;;21.70;;
36379;SDS011;22411;53.016;18.632;2023-03-19T11:12:52;28.38;;;19.92;;
36379;SDS011;22411;53.016;18.632;2023-03-19T11:15:22;24.67;;;18.17;;
36379;SDS011;22411;53.016;18.632;2023-03-19T11:17:57;23.33;;;17.73;;
36379;SDS011;22411;53.016;18.632;2023-03-19T11:20:33;23.63;;;18.30;;
36379;SDS011;22411;53.016;18.632;2023-03-19T11:23:10;20.10;;;15.32;;
36379;SDS011;22411;53.016;18.632;2023-03-19T11:25:40;24.70;;;18.63;;
36379;SDS011;22411;53.016;18.632;2023-03-19T11:28:15;23.70;;;17.17;;
36379;SDS011;22411;53.016;18.632;2023-03-19T11:34:14;21.63;;;15.68;;
36379;SDS011;22411;53.016;18.632;2023-03-19T11:36:43;31.58;;;20.65;;
36379;SDS011;22411;53.016;18.632;2023-03-19T11:41:52;22.02;;;17.00;;
36379;SDS011;22411;53.016;18.632;2023-03-19T11:52:56;16.83;;;14.40;;
36379;SDS011;22411;53.016;18.632;2023-03-19T11:55:40;22.20;;;14.60;;
36379;SDS011;22411;53.016;18.632;2023-03-19T11:58:32;18.90;;;12.77;;
36379;SDS011;22411;53.016;18.632;2023-03-19T12:03:59;14.70;;;12.48;;
36379;SDS011;22411;53.016;18.632;2023-03-19T12:09:21;13.82;;;10.63;;
36379;SDS011;22411;53.016;18.632;2023-03-19T12:15:19;46.03;;;38.25;;
36379;SDS011;22411;53.016;18.632;2023-03-19T12:20:33;23.35;;;16.73;;
36379;SDS011;22411;53.016;18.632;2023-03-19T12:28:51;19.17;;;13.50;;
36379;SDS011;22411;53.016;18.632;2023-03-19T12:31:48;23.65;;;14.73;;
36379;SDS011;22411;53.016;18.632;2023-03-19T12:36:53;26.05;;;18.00;;
36379;SDS011;22411;53.016;18.632;2023-03-19T12:39:30;28.80;;;21.25;;
36379;SDS011;22411;53.016;18.632;2023-03-19T12:42:00;28.30;;;20.15;;
36379;SDS011;22411;53.016;18.632;2023-03-19T12:44:38;31.95;;;20.92;;
36379;SDS011;22411;53.016;18.632;2023-03-19T12:47:19;27.65;;;20.02;;
36379;SDS011;22411;53.016;18.632;2023-03-19T12:49:54;26.95;;;18.95;;
36379;SDS011;22411;53.016;18.632;2023-03-19T12:58:00;86.20;;;56.75;;
36379;SDS011;22411;53.016;18.632;2023-03-19T13:10:04;115.63;;;90.43;;
36379;SDS011;22411;53.016;18.632;2023-03-19T13:12:42;78.55;;;59.13;;
36379;SDS011;22411;53.016;18.632;2023-03-19T13:18:04;59.47;;;50.50;;
36379;SDS011;22411;53.016;18.632;2023-03-19T13:20:39;116.35;;;90.55;;
36379;SDS011;22411;53.016;18.632;2023-03-19T13:23:32;572.55;;;386.35;;
36379;SDS011;22411;53.016;18.632;2023-03-19T13:26:03;692.72;;;433.88;;
36379;SDS011;22411;53.016;18.632;2023-03-19T13:28:38;854.40;;;527.92;;
36379;SDS011;22411;53.016;18.632;2023-03-19T13:31:20;108.57;;;80.50;;
36379;SDS011;22411;53.016;18.632;2023-03-19T13:33:50;73.53;;;53.53;;
36379;SDS011;22411;53.016;18.632;2023-03-19T13:36:26;78.30;;;55.92;;
36379;SDS011;22411;53.016;18.632;2023-03-19T13:38:53;127.75;;;90.88;;
36379;SDS011;22411;53.016;18.632;2023-03-19T13:47:00;179.45;;;143.10;;
36379;SDS011;22411;53.016;18.632;2023-03-19T13:52:50;75.30;;;56.67;;
36379;SDS011;22411;53.016;18.632;2023-03-19T13:55:52;71.47;;;54.15;;
36379;SDS011;22411;53.016;18.632;2023-03-19T13:58:30;57.80;;;38.88;;
36379;SDS011;22411;53.016;18.632;2023-03-19T14:03:55;66.40;;;42.78;;
36379;SDS011;22411;53.016;18.632;2023-03-19T14:08:58;45.38;;;34.53;;
36379;SDS011;22411;53.016;18.632;2023-03-19T14:11:24;27.48;;;18.77;;
36379;SDS011;22411;53.016;18.632;2023-03-19T14:13:56;34.33;;;24.65;;
36379;SDS011;22411;53.016;18.632;2023-03-19T14:16:31;26.38;;;18.13;;
36379;SDS011;22411;53.016;18.632;2023-03-19T14:19:10;25.38;;;19.52;;
36379;SDS011;22411;53.016;18.632;2023-03-19T14:26:57;65.40;;;42.95;;
36379;SDS011;22411;53.016;18.632;2023-03-19T14:29:29;48.70;;;34.92;;
36379;SDS011;22411;53.016;18.632;2023-03-19T14:31:59;29.92;;;20.20;;
36379;SDS011;22411;53.016;18.632;2023-03-19T14:34:34;35.03;;;23.85;;
36379;SDS011;22411;53.016;18.632;2023-03-19T14:37:03;32.85;;;22.42;;
36379;SDS011;22411;53.016;18.632;2023-03-19T14:39:42;25.35;;;16.85;;
36379;SDS011;22411;53.016;18.632;2023-03-19T14:56:15;32.50;;;23.08;;
36379;SDS011;22411;53.016;18.632;2023-03-19T14:58:52;25.48;;;18.02;;
36379;SDS011;22411;53.016;18.632;2023-03-19T15:01:20;25.42;;;18.63;;
36379;SDS011;22411;53.016;18.632;2023-03-19T15:03:52;25.33;;;18.67;;
36379;SDS011;22411;53.016;18.632;2023-03-19T15:06:22;26.60;;;18.77;;
36379;SDS011;22411;53.016;18.632;2023-03-19T15:08:49;27.27;;;17.55;;
36379;SDS011;22411;53.016;18.632;2023-03-19T15:11:20;25.52;;;18.10;;
36379;SDS011;22411;53.016;18.632;2023-03-19T15:17:27;22.35;;;16.25;;
36379;SDS011;22411;53.016;18.632;2023-03-19T15:20:00;23.92;;;17.38;;
36379;SDS011;22411;53.016;18.632;2023-03-19T15:22:29;23.88;;;17.52;;
36379;SDS011;22411;53.016;18.632;2023-03-19T15:25:12;26.85;;;19.33;;
36379;SDS011;22411;53.016;18.632;2023-03-19T15:27:40;27.27;;;19.05;;
36379;SDS011;22411;53.016;18.632;2023-03-19T15:30:28;24.50;;;17.88;;
36379;SDS011;22411;53.016;18.632;2023-03-19T15:32:53;28.35;;;20.13;;
36379;SDS011;22411;53.016;18.632;2023-03-19T15:35:21;28.73;;;21.45;;
36379;SDS011;22411;53.016;18.632;2023-03-19T15:37:52;30.70;;;21.40;;
36379;SDS011;22411;53.016;18.632;2023-03-19T15:40:24;26.67;;;20.92;;
36379;SDS011;22411;53.016;18.632;2023-03-19T15:42:55;30.25;;;22.17;;
36379;SDS011;22411;53.016;18.632;2023-03-19T15:45:24;36.90;;;30.30;;
36379;SDS011;22411;53.016;18.632;2023-03-19T15:50:36;35.83;;;26.30;;
36379;SDS011;22411;53.016;18.632;2023-03-19T15:53:05;32.28;;;21.42;;
36379;SDS011;22411;53.016;18.632;2023-03-19T15:55:35;35.33;;;26.05;;
36379;SDS011;22411;53.016;18.632;2023-03-19T15:58:04;30.73;;;22.45;;
36379;SDS011;22411;53.016;18.632;2023-03-19T16:00:37;32.45;;;20.13;;
36379;SDS011;22411;53.016;18.632;2023-03-19T16:03:05;30.52;;;21.20;;
36379;SDS011;22411;53.016;18.632;2023-03-19T16:05:35;41.75;;;33.35;;
36379;SDS011;22411;53.016;18.632;2023-03-19T16:08:07;102.85;;;79.78;;
36379;SDS011;22411;53.016;18.632;2023-03-19T16:10:40;155.35;;;129.77;;
36379;SDS011;22411;53.016;18.632;2023-03-19T16:13:25;111.88;;;99.13;;